sensor_id;sensor_type;location;lat;lon;timestamp;P1;durP1;ratioP1;P2;durP2;ratioP2
69841;SDS011;57138;51.326;-0.068;2022-08-19T00:01:53;11.63;;;4.55;;
69841;SDS011;57138;51.326;-0.068;2022-08-19T00:04:21;15.02;;;3.80;;
69841;SDS011;57138;51.326;-0.068;2022-08-19T00:06:49;8.85;;;3.65;;
69841;SDS011;57138;51.326;-0.068;2022-08-19T00:09:16;9.50;;;3.70;;
69841;SDS011;57138;51.326;-0.068;2022-08-19T00:11:43;6.20;;;3.03;;
69841;SDS011;57138;51.326;-0.068;2022-08-19T00:14:11;9.00;;;3.72;;
69841;SDS011;57138;51.326;-0.068;2022-08-19T00:16:40;5.80;;;3.15;;
69841;SDS011;57138;51.326;-0.068;2022-08-19T00:19:08;8.52;;;3.00;;
69841;SDS011;57138;51.326;-0.068;2022-08-19T00:21:37;9.60;;;3.85;;
69841;SDS011;57138;51.326;-0.068;2022-08-19T00:24:05;7.40;;;3.13;;
69841;SDS011;57138;51.326;-0.068;2022-08-19T00:26:31;6.78;;;2.95;;
69841;SDS011;57138;51.326;-0.068;2022-08-19T00:28:58;11.68;;;3.95;;
69841;SDS011;57138;51.326;-0.068;2022-08-19T00:31:24;9.35;;;3.53;;
69841;SDS011;57138;51.326;-0.068;2022-08-19T00:33:50;10.95;;;3.83;;
69841;SDS011;57138;51.326;-0.068;2022-08-19T00:36:15;10.35;;;3.90;;
69841;SDS011;57138;51.326;-0.068;2022-08-19T00:38:46;10.23;;;3.63;;
69841;SDS011;57138;51.326;-0.068;2022-08-19T00:41:12;7.50;;;3.97;;
69841;SDS011;57138;51.326;-0.068;2022-08-19T00:43:40;8.35;;;3.30;;
69841;SDS011;57138;51.326;-0.068;2022-08-19T00:46:06;9.30;;;4.40;;
69841;SDS011;57138;51.326;-0.068;2022-08-19T00:48:33;8.15;;;3.92;;
69841;SDS011;57138;51.326;-0.068;2022-08-19T00:51:01;10.40;;;3.97;;
69841;SDS011;57138;51.326;-0.068;2022-08-19T00:53:28;10.90;;;4.35;;
69841;SDS011;57138;51.326;-0.068;2022-08-19T00:55:58;9.73;;;4.10;;
69841;SDS011;57138;51.326;-0.068;2022-08-19T00:58:27;13.10;;;4.10;;
69841;SDS011;57138;51.326;-0.068;2022-08-19T01:00:55;9.35;;;4.35;;
69841;SDS011;57138;51.326;-0.068;2022-08-19T01:03:21;12.80;;;5.68;;
69841;SDS011;57138;51.326;-0.068;2022-08-19T01:05:47;11.90;;;5.13;;
69841;SDS011;57138;51.326;-0.068;2022-08-19T01:08:15;11.45;;;5.63;;
69841;SDS011;57138;51.326;-0.068;2022-08-19T01:10:43;12.18;;;6.38;;
69841;SDS011;57138;51.326;-0.068;2022-08-19T01:13:13;10.60;;;5.50;;
69841;SDS011;57138;51.326;-0.068;2022-08-19T01:15:42;15.43;;;6.15;;
69841;SDS011;57138;51.326;-0.068;2022-08-19T01:18:12;15.02;;;6.93;;
69841;SDS011;57138;51.326;-0.068;2022-08-19T01:20:40;11.45;;;5.97;;
69841;SDS011;57138;51.326;-0.068;2022-08-19T01:23:06;9.70;;;5.72;;
69841;SDS011;57138;51.326;-0.068;2022-08-19T01:25:40;11.88;;;5.90;;
69841;SDS011;57138;51.326;-0.068;2022-08-19T01:28:18;14.70;;;7.43;;
69841;SDS011;57138;51.326;-0.068;2022-08-19T01:30:45;17.70;;;8.70;;
69841;SDS011;57138;51.326;-0.068;2022-08-19T01:33:11;14.65;;;7.45;;
69841;SDS011;57138;51.326;-0.068;2022-08-19T01:35:38;12.35;;;7.05;;
69841;SDS011;57138;51.326;-0.068;2022-08-19T01:38:08;10.15;;;6.35;;
69841;SDS011;57138;51.326;-0.068;2022-08-19T01:40:43;10.95;;;6.05;;
69841;SDS011;57138;51.326;-0.068;2022-08-19T01:43:09;16.20;;;7.43;;
69841;SDS011;57138;51.326;-0.068;2022-08-19T01:45:34;14.70;;;7.13;;
69841;SDS011;57138;51.326;-0.068;2022-08-19T01:48:01;11.35;;;6.07;;
69841;SDS011;57138;51.326;-0.068;2022-08-19T01:50:26;14.10;;;6.97;;
69841;SDS011;57138;51.326;-0.068;2022-08-19T01:52:53;14.52;;;7.93;;
69841;SDS011;57138;51.326;-0.068;2022-08-19T01:55:20;14.93;;;6.57;;
69841;SDS011;57138;51.326;-0.068;2022-08-19T01:57:48;16.95;;;6.70;;
69841;SDS011;57138;51.326;-0.068;2022-08-19T02:00:21;13.88;;;6.20;;
69841;SDS011;57138;51.326;-0.068;2022-08-19T02:02:54;12.63;;;6.75;;
69841;SDS011;57138;51.326;-0.068;2022-08-19T02:05:23;12.15;;;6.22;;
69841;SDS011;57138;51.326;-0.068;2022-08-19T02:07:48;12.75;;;5.80;;
69841;SDS011;57138;51.326;-0.068;2022-08-19T02:10:16;11.70;;;6.22;;
69841;SDS011;57138;51.326;-0.068;2022-08-19T02:12:44;13.75;;;6.05;;
69841;SDS011;57138;51.326;-0.068;2022-08-19T02:15:10;10.85;;;5.50;;
69841;SDS011;57138;51.326;-0.068;2022-08-19T02:17:36;11.77;;;5.18;;
69841;SDS011;57138;51.326;-0.068;2022-08-19T02:20:01;11.10;;;5.15;;
69841;SDS011;57138;51.326;-0.068;2022-08-19T02:22:27;11.45;;;4.93;;
69841;SDS011;57138;51.326;-0.068;2022-08-19T02:24:53;12.60;;;5.57;;
69841;SDS011;57138;51.326;-0.068;2022-08-19T02:27:19;10.98;;;5.93;;
69841;SDS011;57138;51.326;-0.068;2022-08-19T02:29:46;11.60;;;5.95;;
69841;SDS011;57138;51.326;-0.068;2022-08-19T02:32:13;17.05;;;5.68;;
69841;SDS011;57138;51.326;-0.068;2022-08-19T02:34:39;14.10;;;5.93;;
69841;SDS011;57138;51.326;-0.068;2022-08-19T02:37:04;9.45;;;5.45;;
69841;SDS011;57138;51.326;-0.068;2022-08-19T02:39:30;9.35;;;5.63;;
69841;SDS011;57138;51.326;-0.068;2022-08-19T02:41:56;18.67;;;7.07;;
69841;SDS011;57138;51.326;-0.068;2022-08-19T02:44:24;12.18;;;6.32;;
69841;SDS011;57138;51.326;-0.068;2022-08-19T02:46:49;12.98;;;6.35;;
69841;SDS011;57138;51.326;-0.068;2022-08-19T02:49:15;11.35;;;6.03;;
69841;SDS011;57138;51.326;-0.068;2022-08-19T02:51:42;14.48;;;6.53;;
69841;SDS011;57138;51.326;-0.068;2022-08-19T02:54:10;13.70;;;6.55;;
69841;SDS011;57138;51.326;-0.068;2022-08-19T02:56:37;13.65;;;7.78;;
69841;SDS011;57138;51.326;-0.068;2022-08-19T02:59:05;11.50;;;6.43;;
69841;SDS011;57138;51.326;-0.068;2022-08-19T03:01:37;12.82;;;7.35;;
69841;SDS011;57138;51.326;-0.068;2022-08-19T03:04:08;14.43;;;6.43;;
69841;SDS011;57138;51.326;-0.068;2022-08-19T03:06:37;13.38;;;6.60;;
69841;SDS011;57138;51.326;-0.068;2022-08-19T03:09:04;11.75;;;6.93;;
69841;SDS011;57138;51.326;-0.068;2022-08-19T03:11:30;10.43;;;7.15;;
69841;SDS011;57138;51.326;-0.068;2022-08-19T03:13:57;18.25;;;6.85;;
69841;SDS011;57138;51.326;-0.068;2022-08-19T03:16:24;14.52;;;6.93;;
69841;SDS011;57138;51.326;-0.068;2022-08-19T03:18:51;12.95;;;6.25;;
69841;SDS011;57138;51.326;-0.068;2022-08-19T03:21:19;12.10;;;7.82;;
69841;SDS011;57138;51.326;-0.068;2022-08-19T03:23:46;13.00;;;6.07;;
69841;SDS011;57138;51.326;-0.068;2022-08-19T03:26:12;14.85;;;6.95;;
69841;SDS011;57138;51.326;-0.068;2022-08-19T03:28:40;17.25;;;7.88;;
69841;SDS011;57138;51.326;-0.068;2022-08-19T03:31:11;12.10;;;7.20;;
69841;SDS011;57138;51.326;-0.068;2022-08-19T03:33:39;14.40;;;7.70;;
69841;SDS011;57138;51.326;-0.068;2022-08-19T03:36:06;12.70;;;7.25;;
69841;SDS011;57138;51.326;-0.068;2022-08-19T03:38:45;11.10;;;6.68;;
69841;SDS011;57138;51.326;-0.068;2022-08-19T03:41:14;13.65;;;7.32;;
69841;SDS011;57138;51.326;-0.068;2022-08-19T03:43:44;11.32;;;6.88;;
69841;SDS011;57138;51.326;-0.068;2022-08-19T03:46:15;11.73;;;7.07;;
69841;SDS011;57138;51.326;-0.068;2022-08-19T03:48:45;13.75;;;7.72;;
69841;SDS011;57138;51.326;-0.068;2022-08-19T03:51:18;15.70;;;8.73;;
69841;SDS011;57138;51.326;-0.068;2022-08-19T03:53:45;13.55;;;8.48;;
69841;SDS011;57138;51.326;-0.068;2022-08-19T03:56:11;15.35;;;8.80;;
69841;SDS011;57138;51.326;-0.068;2022-08-19T03:58:38;15.70;;;8.20;;
69841;SDS011;57138;51.326;-0.068;2022-08-19T04:01:08;14.35;;;8.18;;
69841;SDS011;57138;51.326;-0.068;2022-08-19T04:03:35;14.88;;;8.07;;
69841;SDS011;57138;51.326;-0.068;2022-08-19T04:06:13;15.38;;;8.88;;
69841;SDS011;57138;51.326;-0.068;2022-08-19T04:08:41;12.55;;;7.70;;
69841;SDS011;57138;51.326;-0.068;2022-08-19T04:11:09;13.80;;;8.95;;
69841;SDS011;57138;51.326;-0.068;2022-08-19T04:13:35;12.50;;;8.20;;
69841;SDS011;57138;51.326;-0.068;2022-08-19T04:16:01;11.88;;;7.78;;
69841;SDS011;57138;51.326;-0.068;2022-08-19T04:18:26;15.30;;;8.82;;
69841;SDS011;57138;51.326;-0.068;2022-08-19T04:20:54;10.73;;;7.25;;
69841;SDS011;57138;51.326;-0.068;2022-08-19T04:23:20;14.05;;;8.65;;
69841;SDS011;57138;51.326;-0.068;2022-08-19T04:25:45;12.77;;;7.10;;
69841;SDS011;57138;51.326;-0.068;2022-08-19T04:28:11;13.68;;;7.05;;
69841;SDS011;57138;51.326;-0.068;2022-08-19T04:30:41;12.63;;;8.13;;
69841;SDS011;57138;51.326;-0.068;2022-08-19T04:33:10;12.52;;;7.80;;
69841;SDS011;57138;51.326;-0.068;2022-08-19T04:35:40;11.98;;;7.85;;
69841;SDS011;57138;51.326;-0.068;2022-08-19T04:38:07;14.85;;;8.35;;
69841;SDS011;57138;51.326;-0.068;2022-08-19T04:40:34;15.80;;;9.32;;
69841;SDS011;57138;51.326;-0.068;2022-08-19T04:43:29;15.73;;;9.30;;
69841;SDS011;57138;51.326;-0.068;2022-08-19T04:45:56;11.10;;;8.27;;
69841;SDS011;57138;51.326;-0.068;2022-08-19T04:48:23;15.45;;;9.10;;
69841;SDS011;57138;51.326;-0.068;2022-08-19T04:50:52;10.38;;;7.88;;
69841;SDS011;57138;51.326;-0.068;2022-08-19T04:53:26;11.23;;;7.03;;
69841;SDS011;57138;51.326;-0.068;2022-08-19T04:55:53;10.95;;;7.38;;
69841;SDS011;57138;51.326;-0.068;2022-08-19T04:58:26;13.18;;;7.68;;
69841;SDS011;57138;51.326;-0.068;2022-08-19T05:00:52;10.55;;;6.90;;
69841;SDS011;57138;51.326;-0.068;2022-08-19T05:03:18;10.88;;;7.03;;
69841;SDS011;57138;51.326;-0.068;2022-08-19T05:05:45;12.32;;;6.78;;
69841;SDS011;57138;51.326;-0.068;2022-08-19T05:08:13;10.90;;;7.20;;
69841;SDS011;57138;51.326;-0.068;2022-08-19T05:10:44;13.05;;;7.05;;
69841;SDS011;57138;51.326;-0.068;2022-08-19T05:13:10;10.73;;;6.85;;
69841;SDS011;57138;51.326;-0.068;2022-08-19T05:15:35;10.95;;;6.80;;
69841;SDS011;57138;51.326;-0.068;2022-08-19T05:18:01;10.70;;;6.53;;
69841;SDS011;57138;51.326;-0.068;2022-08-19T05:20:45;9.05;;;5.57;;
69841;SDS011;57138;51.326;-0.068;2022-08-19T05:23:29;7.50;;;4.35;;
69841;SDS011;57138;51.326;-0.068;2022-08-19T05:25:54;6.70;;;3.95;;
69841;SDS011;57138;51.326;-0.068;2022-08-19T05:28:19;8.88;;;4.40;;
69841;SDS011;57138;51.326;-0.068;2022-08-19T05:30:46;7.30;;;3.10;;
69841;SDS011;57138;51.326;-0.068;2022-08-19T05:33:13;4.72;;;2.53;;
69841;SDS011;57138;51.326;-0.068;2022-08-19T05:35:39;6.03;;;2.85;;
69841;SDS011;57138;51.326;-0.068;2022-08-19T05:38:06;6.18;;;2.80;;
69841;SDS011;57138;51.326;-0.068;2022-08-19T05:40:34;5.30;;;2.30;;
69841;SDS011;57138;51.326;-0.068;2022-08-19T05:43:01;5.93;;;1.88;;
69841;SDS011;57138;51.326;-0.068;2022-08-19T05:45:27;4.22;;;1.70;;
69841;SDS011;57138;51.326;-0.068;2022-08-19T05:47:52;3.78;;;1.63;;
69841;SDS011;57138;51.326;-0.068;2022-08-19T05:50:18;4.55;;;1.95;;
69841;SDS011;57138;51.326;-0.068;2022-08-19T05:52:44;4.20;;;1.35;;
69841;SDS011;57138;51.326;-0.068;2022-08-19T05:55:11;4.55;;;1.33;;
69841;SDS011;57138;51.326;-0.068;2022-08-19T05:57:37;3.78;;;1.13;;
69841;SDS011;57138;51.326;-0.068;2022-08-19T06:00:04;3.10;;;1.02;;
69841;SDS011;57138;51.326;-0.068;2022-08-19T06:02:34;3.30;;;0.70;;
69841;SDS011;57138;51.326;-0.068;2022-08-19T06:05:00;2.75;;;0.60;;
69841;SDS011;57138;51.326;-0.068;2022-08-19T06:07:27;2.03;;;0.40;;
69841;SDS011;57138;51.326;-0.068;2022-08-19T06:09:53;2.60;;;1.27;;
69841;SDS011;57138;51.326;-0.068;2022-08-19T06:12:19;1.85;;;0.70;;
69841;SDS011;57138;51.326;-0.068;2022-08-19T06:14:51;1.02;;;0.30;;
69841;SDS011;57138;51.326;-0.068;2022-08-19T06:17:19;1.52;;;0.60;;
69841;SDS011;57138;51.326;-0.068;2022-08-19T06:19:47;1.13;;;0.45;;
69841;SDS011;57138;51.326;-0.068;2022-08-19T06:22:14;2.88;;;0.77;;
69841;SDS011;57138;51.326;-0.068;2022-08-19T06:24:40;3.08;;;0.40;;
69841;SDS011;57138;51.326;-0.068;2022-08-19T06:27:06;6.50;;;1.20;;
69841;SDS011;57138;51.326;-0.068;2022-08-19T06:29:31;1.00;;;0.40;;
69841;SDS011;57138;51.326;-0.068;2022-08-19T06:31:59;2.28;;;0.65;;
69841;SDS011;57138;51.326;-0.068;2022-08-19T06:34:27;2.92;;;0.50;;
69841;SDS011;57138;51.326;-0.068;2022-08-19T06:36:54;1.67;;;0.52;;
69841;SDS011;57138;51.326;-0.068;2022-08-19T06:39:22;1.98;;;0.73;;
69841;SDS011;57138;51.326;-0.068;2022-08-19T06:41:51;2.58;;;0.70;;
69841;SDS011;57138;51.326;-0.068;2022-08-19T06:44:19;4.55;;;0.70;;
69841;SDS011;57138;51.326;-0.068;2022-08-19T06:46:46;4.50;;;0.80;;
69841;SDS011;57138;51.326;-0.068;2022-08-19T06:49:13;2.03;;;0.68;;
69841;SDS011;57138;51.326;-0.068;2022-08-19T06:51:43;3.55;;;0.88;;
69841;SDS011;57138;51.326;-0.068;2022-08-19T06:54:12;2.97;;;0.90;;
69841;SDS011;57138;51.326;-0.068;2022-08-19T06:56:37;1.92;;;0.68;;
69841;SDS011;57138;51.326;-0.068;2022-08-19T06:59:07;3.17;;;0.70;;
69841;SDS011;57138;51.326;-0.068;2022-08-19T07:01:39;4.10;;;1.10;;
69841;SDS011;57138;51.326;-0.068;2022-08-19T07:04:07;2.97;;;0.68;;
69841;SDS011;57138;51.326;-0.068;2022-08-19T07:06:34;3.08;;;0.68;;
69841;SDS011;57138;51.326;-0.068;2022-08-19T07:09:02;3.63;;;1.23;;
69841;SDS011;57138;51.326;-0.068;2022-08-19T07:11:28;2.75;;;0.80;;
69841;SDS011;57138;51.326;-0.068;2022-08-19T07:13:54;2.88;;;0.95;;
69841;SDS011;57138;51.326;-0.068;2022-08-19T07:16:23;2.90;;;1.00;;
69841;SDS011;57138;51.326;-0.068;2022-08-19T07:18:49;3.22;;;0.80;;
69841;SDS011;57138;51.326;-0.068;2022-08-19T07:21:16;2.28;;;0.70;;
69841;SDS011;57138;51.326;-0.068;2022-08-19T07:23:49;4.88;;;0.70;;
69841;SDS011;57138;51.326;-0.068;2022-08-19T07:26:23;1.92;;;0.60;;
69841;SDS011;57138;51.326;-0.068;2022-08-19T07:28:51;2.55;;;1.00;;
69841;SDS011;57138;51.326;-0.068;2022-08-19T07:31:19;3.28;;;0.77;;
69841;SDS011;57138;51.326;-0.068;2022-08-19T07:33:47;2.00;;;0.70;;
69841;SDS011;57138;51.326;-0.068;2022-08-19T07:36:15;1.95;;;0.80;;
69841;SDS011;57138;51.326;-0.068;2022-08-19T07:38:45;3.70;;;0.63;;
69841;SDS011;57138;51.326;-0.068;2022-08-19T07:41:13;2.13;;;0.70;;
69841;SDS011;57138;51.326;-0.068;2022-08-19T07:43:42;1.63;;;0.43;;
69841;SDS011;57138;51.326;-0.068;2022-08-19T07:46:08;3.03;;;0.60;;
69841;SDS011;57138;51.326;-0.068;2022-08-19T07:48:35;1.40;;;0.40;;
69841;SDS011;57138;51.326;-0.068;2022-08-19T07:51:03;3.22;;;0.70;;
69841;SDS011;57138;51.326;-0.068;2022-08-19T07:53:31;1.77;;;0.45;;
69841;SDS011;57138;51.326;-0.068;2022-08-19T07:55:58;2.75;;;0.73;;
69841;SDS011;57138;51.326;-0.068;2022-08-19T07:58:29;3.45;;;1.23;;
69841;SDS011;57138;51.326;-0.068;2022-08-19T08:01:00;2.45;;;0.55;;
69841;SDS011;57138;51.326;-0.068;2022-08-19T08:03:27;3.45;;;0.70;;
69841;SDS011;57138;51.326;-0.068;2022-08-19T08:06:12;4.18;;;0.85;;
69841;SDS011;57138;51.326;-0.068;2022-08-19T08:08:57;9.25;;;1.25;;
69841;SDS011;57138;51.326;-0.068;2022-08-19T08:11:36;0.90;;;0.40;;
69841;SDS011;57138;51.326;-0.068;2022-08-19T08:14:03;3.75;;;0.40;;
69841;SDS011;57138;51.326;-0.068;2022-08-19T08:16:29;2.33;;;0.50;;
69841;SDS011;57138;51.326;-0.068;2022-08-19T08:18:58;5.20;;;0.50;;
69841;SDS011;57138;51.326;-0.068;2022-08-19T08:21:24;1.52;;;0.88;;
69841;SDS011;57138;51.326;-0.068;2022-08-19T08:23:50;3.13;;;0.68;;
69841;SDS011;57138;51.326;-0.068;2022-08-19T08:26:22;2.58;;;0.50;;
69841;SDS011;57138;51.326;-0.068;2022-08-19T08:28:50;2.75;;;0.60;;
69841;SDS011;57138;51.326;-0.068;2022-08-19T08:31:19;2.45;;;0.50;;
69841;SDS011;57138;51.326;-0.068;2022-08-19T08:33:45;2.45;;;0.65;;
69841;SDS011;57138;51.326;-0.068;2022-08-19T08:36:12;3.50;;;0.85;;
69841;SDS011;57138;51.326;-0.068;2022-08-19T08:38:40;4.22;;;0.68;;
69841;SDS011;57138;51.326;-0.068;2022-08-19T08:43:54;3.35;;;0.80;;
69841;SDS011;57138;51.326;-0.068;2022-08-19T08:46:25;5.45;;;0.80;;
69841;SDS011;57138;51.326;-0.068;2022-08-19T08:51:53;3.17;;;0.65;;
69841;SDS011;57138;51.326;-0.068;2022-08-19T08:54:28;4.55;;;0.70;;
69841;SDS011;57138;51.326;-0.068;2022-08-19T08:57:10;4.72;;;1.10;;
69841;SDS011;57138;51.326;-0.068;2022-08-19T08:59:43;3.92;;;1.13;;
69841;SDS011;57138;51.326;-0.068;2022-08-19T09:02:15;5.50;;;0.60;;
69841;SDS011;57138;51.326;-0.068;2022-08-19T09:04:42;2.83;;;0.60;;
69841;SDS011;57138;51.326;-0.068;2022-08-19T09:09:50;4.88;;;0.95;;
69841;SDS011;57138;51.326;-0.068;2022-08-19T09:17:17;6.30;;;1.30;;
69841;SDS011;57138;51.326;-0.068;2022-08-19T09:22:18;10.55;;;1.80;;
69841;SDS011;57138;51.326;-0.068;2022-08-19T09:24:46;7.03;;;0.93;;
69841;SDS011;57138;51.326;-0.068;2022-08-19T09:27:14;5.28;;;1.10;;
69841;SDS011;57138;51.326;-0.068;2022-08-19T09:29:40;4.72;;;0.80;;
69841;SDS011;57138;51.326;-0.068;2022-08-19T09:32:06;3.10;;;1.00;;
69841;SDS011;57138;51.326;-0.068;2022-08-19T09:34:32;2.67;;;0.63;;
69841;SDS011;57138;51.326;-0.068;2022-08-19T09:36:58;4.65;;;0.88;;
69841;SDS011;57138;51.326;-0.068;2022-08-19T09:39:25;5.05;;;0.98;;
69841;SDS011;57138;51.326;-0.068;2022-08-19T09:41:51;3.78;;;0.95;;
69841;SDS011;57138;51.326;-0.068;2022-08-19T09:44:18;3.58;;;0.90;;
69841;SDS011;57138;51.326;-0.068;2022-08-19T09:46:48;6.55;;;0.95;;
69841;SDS011;57138;51.326;-0.068;2022-08-19T09:49:16;6.78;;;1.67;;
69841;SDS011;57138;51.326;-0.068;2022-08-19T09:51:43;4.40;;;1.17;;
69841;SDS011;57138;51.326;-0.068;2022-08-19T09:54:09;3.88;;;1.13;;
69841;SDS011;57138;51.326;-0.068;2022-08-19T09:56:34;6.55;;;1.33;;
69841;SDS011;57138;51.326;-0.068;2022-08-19T09:59:00;5.38;;;1.00;;
69841;SDS011;57138;51.326;-0.068;2022-08-19T10:01:29;5.93;;;0.88;;
69841;SDS011;57138;51.326;-0.068;2022-08-19T10:03:57;4.50;;;1.13;;
69841;SDS011;57138;51.326;-0.068;2022-08-19T10:06:25;4.70;;;1.20;;
69841;SDS011;57138;51.326;-0.068;2022-08-19T10:08:55;4.68;;;1.02;;
69841;SDS011;57138;51.326;-0.068;2022-08-19T10:11:21;6.03;;;1.20;;
69841;SDS011;57138;51.326;-0.068;2022-08-19T10:13:46;7.38;;;1.33;;
69841;SDS011;57138;51.326;-0.068;2022-08-19T10:16:17;4.93;;;1.10;;
69841;SDS011;57138;51.326;-0.068;2022-08-19T10:18:46;6.20;;;0.95;;
69841;SDS011;57138;51.326;-0.068;2022-08-19T10:21:13;4.72;;;1.20;;
69841;SDS011;57138;51.326;-0.068;2022-08-19T10:23:42;8.32;;;2.38;;
69841;SDS011;57138;51.326;-0.068;2022-08-19T10:26:10;4.10;;;0.75;;
69841;SDS011;57138;51.326;-0.068;2022-08-19T10:28:38;8.90;;;1.13;;
69841;SDS011;57138;51.326;-0.068;2022-08-19T10:31:07;5.55;;;1.42;;
69841;SDS011;57138;51.326;-0.068;2022-08-19T10:33:35;8.73;;;1.45;;
69841;SDS011;57138;51.326;-0.068;2022-08-19T10:36:03;8.77;;;1.40;;
69841;SDS011;57138;51.326;-0.068;2022-08-19T10:38:32;7.63;;;1.15;;
69841;SDS011;57138;51.326;-0.068;2022-08-19T10:41:05;7.03;;;1.70;;
69841;SDS011;57138;51.326;-0.068;2022-08-19T10:43:38;5.75;;;1.02;;
69841;SDS011;57138;51.326;-0.068;2022-08-19T10:46:09;7.45;;;2.50;;
69841;SDS011;57138;51.326;-0.068;2022-08-19T10:48:36;8.48;;;2.47;;
69841;SDS011;57138;51.326;-0.068;2022-08-19T10:51:02;5.28;;;1.25;;
69841;SDS011;57138;51.326;-0.068;2022-08-19T10:53:47;6.90;;;1.15;;
69841;SDS011;57138;51.326;-0.068;2022-08-19T10:56:13;13.40;;;1.85;;
69841;SDS011;57138;51.326;-0.068;2022-08-19T10:58:57;4.90;;;1.27;;
69841;SDS011;57138;51.326;-0.068;2022-08-19T11:01:23;6.50;;;1.60;;
69841;SDS011;57138;51.326;-0.068;2022-08-19T11:03:50;12.30;;;1.75;;
69841;SDS011;57138;51.326;-0.068;2022-08-19T11:06:15;10.07;;;1.55;;
69841;SDS011;57138;51.326;-0.068;2022-08-19T11:08:41;9.95;;;1.30;;
69841;SDS011;57138;51.326;-0.068;2022-08-19T11:11:10;8.65;;;1.50;;
69841;SDS011;57138;51.326;-0.068;2022-08-19T11:13:37;5.93;;;1.20;;
69841;SDS011;57138;51.326;-0.068;2022-08-19T11:16:05;7.13;;;1.40;;
69841;SDS011;57138;51.326;-0.068;2022-08-19T11:18:37;4.55;;;1.20;;
69841;SDS011;57138;51.326;-0.068;2022-08-19T11:21:05;9.18;;;1.70;;
69841;SDS011;57138;51.326;-0.068;2022-08-19T11:23:38;6.07;;;0.93;;
69841;SDS011;57138;51.326;-0.068;2022-08-19T11:26:04;8.25;;;1.00;;
69841;SDS011;57138;51.326;-0.068;2022-08-19T11:28:30;8.02;;;2.00;;
69841;SDS011;57138;51.326;-0.068;2022-08-19T11:30:56;13.88;;;3.42;;
69841;SDS011;57138;51.326;-0.068;2022-08-19T11:33:21;4.22;;;1.20;;
69841;SDS011;57138;51.326;-0.068;2022-08-19T11:35:47;8.00;;;1.50;;
69841;SDS011;57138;51.326;-0.068;2022-08-19T11:38:14;4.88;;;1.00;;
69841;SDS011;57138;51.326;-0.068;2022-08-19T11:40:40;8.13;;;1.30;;
69841;SDS011;57138;51.326;-0.068;2022-08-19T11:43:07;8.70;;;1.73;;
69841;SDS011;57138;51.326;-0.068;2022-08-19T11:45:34;6.90;;;1.42;;
69841;SDS011;57138;51.326;-0.068;2022-08-19T11:48:01;4.18;;;1.45;;
69841;SDS011;57138;51.326;-0.068;2022-08-19T11:50:30;12.02;;;1.83;;
69841;SDS011;57138;51.326;-0.068;2022-08-19T11:52:56;7.15;;;1.90;;
69841;SDS011;57138;51.326;-0.068;2022-08-19T11:55:23;11.82;;;2.67;;
69841;SDS011;57138;51.326;-0.068;2022-08-19T11:57:49;7.55;;;1.63;;
69841;SDS011;57138;51.326;-0.068;2022-08-19T12:00:15;8.07;;;1.75;;
69841;SDS011;57138;51.326;-0.068;2022-08-19T12:02:43;7.43;;;1.65;;
69841;SDS011;57138;51.326;-0.068;2022-08-19T12:05:09;9.32;;;2.33;;
69841;SDS011;57138;51.326;-0.068;2022-08-19T12:07:34;7.63;;;2.35;;
69841;SDS011;57138;51.326;-0.068;2022-08-19T12:10:01;7.25;;;1.50;;
69841;SDS011;57138;51.326;-0.068;2022-08-19T12:12:31;11.00;;;1.80;;
69841;SDS011;57138;51.326;-0.068;2022-08-19T12:15:09;10.43;;;2.45;;
69841;SDS011;57138;51.326;-0.068;2022-08-19T12:17:36;8.63;;;1.95;;
69841;SDS011;57138;51.326;-0.068;2022-08-19T12:20:03;10.48;;;2.13;;
69841;SDS011;57138;51.326;-0.068;2022-08-19T12:22:30;8.77;;;1.90;;
69841;SDS011;57138;51.326;-0.068;2022-08-19T12:24:55;8.50;;;1.80;;
69841;SDS011;57138;51.326;-0.068;2022-08-19T12:27:21;6.03;;;1.48;;
69841;SDS011;57138;51.326;-0.068;2022-08-19T12:29:47;15.63;;;2.40;;
69841;SDS011;57138;51.326;-0.068;2022-08-19T12:32:12;8.45;;;2.10;;
69841;SDS011;57138;51.326;-0.068;2022-08-19T12:34:38;7.55;;;1.92;;
69841;SDS011;57138;51.326;-0.068;2022-08-19T12:37:04;7.53;;;1.95;;
69841;SDS011;57138;51.326;-0.068;2022-08-19T12:39:35;9.80;;;2.20;;
69841;SDS011;57138;51.326;-0.068;2022-08-19T12:42:03;10.48;;;2.38;;
69841;SDS011;57138;51.326;-0.068;2022-08-19T12:44:30;9.13;;;2.20;;
69841;SDS011;57138;51.326;-0.068;2022-08-19T12:46:57;8.15;;;2.40;;
69841;SDS011;57138;51.326;-0.068;2022-08-19T12:49:23;8.35;;;1.98;;
69841;SDS011;57138;51.326;-0.068;2022-08-19T12:51:49;8.25;;;1.63;;
69841;SDS011;57138;51.326;-0.068;2022-08-19T12:54:17;12.82;;;2.53;;
69841;SDS011;57138;51.326;-0.068;2022-08-19T12:56:42;14.00;;;2.47;;
69841;SDS011;57138;51.326;-0.068;2022-08-19T12:59:08;8.50;;;1.98;;
69841;SDS011;57138;51.326;-0.068;2022-08-19T13:01:36;10.05;;;2.30;;
69841;SDS011;57138;51.326;-0.068;2022-08-19T13:04:02;7.68;;;1.70;;
69841;SDS011;57138;51.326;-0.068;2022-08-19T13:06:27;9.13;;;1.98;;
69841;SDS011;57138;51.326;-0.068;2022-08-19T13:08:54;7.65;;;2.40;;
69841;SDS011;57138;51.326;-0.068;2022-08-19T13:11:20;8.20;;;1.73;;
69841;SDS011;57138;51.326;-0.068;2022-08-19T13:13:49;15.75;;;3.70;;
69841;SDS011;57138;51.326;-0.068;2022-08-19T13:16:16;8.95;;;1.75;;
69841;SDS011;57138;51.326;-0.068;2022-08-19T13:18:44;6.82;;;1.65;;
69841;SDS011;57138;51.326;-0.068;2022-08-19T13:21:14;9.57;;;1.80;;
69841;SDS011;57138;51.326;-0.068;2022-08-19T13:23:40;8.00;;;1.85;;
69841;SDS011;57138;51.326;-0.068;2022-08-19T13:26:07;9.23;;;1.55;;
69841;SDS011;57138;51.326;-0.068;2022-08-19T13:28:34;9.20;;;1.88;;
69841;SDS011;57138;51.326;-0.068;2022-08-19T13:31:19;8.02;;;2.05;;
69841;SDS011;57138;51.326;-0.068;2022-08-19T13:34:05;10.25;;;1.98;;
69841;SDS011;57138;51.326;-0.068;2022-08-19T13:36:32;8.45;;;2.00;;
69841;SDS011;57138;51.326;-0.068;2022-08-19T13:38:58;10.25;;;2.10;;
69841;SDS011;57138;51.326;-0.068;2022-08-19T13:41:24;15.57;;;1.90;;
69841;SDS011;57138;51.326;-0.068;2022-08-19T13:43:50;6.60;;;1.77;;
69841;SDS011;57138;51.326;-0.068;2022-08-19T13:46:15;9.32;;;1.83;;
69841;SDS011;57138;51.326;-0.068;2022-08-19T13:48:41;7.60;;;1.70;;
69841;SDS011;57138;51.326;-0.068;2022-08-19T13:51:07;11.57;;;1.98;;
69841;SDS011;57138;51.326;-0.068;2022-08-19T13:53:37;8.55;;;1.67;;
69841;SDS011;57138;51.326;-0.068;2022-08-19T13:56:11;10.82;;;1.48;;
69841;SDS011;57138;51.326;-0.068;2022-08-19T13:58:39;11.88;;;1.60;;
69841;SDS011;57138;51.326;-0.068;2022-08-19T14:01:04;10.70;;;1.90;;
69841;SDS011;57138;51.326;-0.068;2022-08-19T14:03:31;8.30;;;1.90;;
69841;SDS011;57138;51.326;-0.068;2022-08-19T14:05:58;7.55;;;1.73;;
69841;SDS011;57138;51.326;-0.068;2022-08-19T14:08:24;8.80;;;1.48;;
69841;SDS011;57138;51.326;-0.068;2022-08-19T14:10:53;10.48;;;2.17;;
69841;SDS011;57138;51.326;-0.068;2022-08-19T14:13:21;12.93;;;2.35;;
69841;SDS011;57138;51.326;-0.068;2022-08-19T14:15:48;9.25;;;2.63;;
69841;SDS011;57138;51.326;-0.068;2022-08-19T14:18:16;12.02;;;1.92;;
69841;SDS011;57138;51.326;-0.068;2022-08-19T14:20:43;6.32;;;1.38;;
69841;SDS011;57138;51.326;-0.068;2022-08-19T14:23:10;7.15;;;1.38;;
69841;SDS011;57138;51.326;-0.068;2022-08-19T14:25:37;8.00;;;2.88;;
69841;SDS011;57138;51.326;-0.068;2022-08-19T14:28:09;7.28;;;1.95;;
69841;SDS011;57138;51.326;-0.068;2022-08-19T14:30:38;8.48;;;1.40;;
69841;SDS011;57138;51.326;-0.068;2022-08-19T14:33:04;10.18;;;2.35;;
69841;SDS011;57138;51.326;-0.068;2022-08-19T14:35:32;6.70;;;1.33;;
69841;SDS011;57138;51.326;-0.068;2022-08-19T14:38:05;9.25;;;1.70;;
69841;SDS011;57138;51.326;-0.068;2022-08-19T14:40:39;10.15;;;1.85;;
69841;SDS011;57138;51.326;-0.068;2022-08-19T14:43:09;9.02;;;2.00;;
69841;SDS011;57138;51.326;-0.068;2022-08-19T14:45:36;10.52;;;2.42;;
69841;SDS011;57138;51.326;-0.068;2022-08-19T14:48:05;7.63;;;1.38;;
69841;SDS011;57138;51.326;-0.068;2022-08-19T14:50:33;13.25;;;2.03;;